KMJX/MJX METAR and TAF weather

Enter ICAO airport designator
Station Type Date Time Source
KMJX METAR 2019/07/17 18:56 UTC NOAA

KMJX 171856Z AUTO 21009KT 10SM FEW060 36/22 A2991 RMK AO2 SLP129 T03610222


Station Type Date Time Source
KMJX Decoded METAR 2019/07/17 18:56 UTC NOAA

Station name not available
Jul 17, 2019 - 02:56 PM EDT / 2019.07.17 1856 UTC
Wind: from the SSW (210 degrees) at 10 MPH (9 KT):0
Visibility: 10 mile(s):0
Sky conditions: mostly clear
Temperature: 97.0 F (36.1 C)
Heat index: 105.6 F (40.9 C):1
Dew Point: 72.0 F (22.2 C)
Relative Humidity: 44%
Pressure (altimeter): 29.91 in. Hg (1012 hPa)
ob: KMJX 171856Z AUTO 21009KT 10SM FEW060 36/22 A2991 RMK AO2 SLP129 T03610222
cycle: 19

Station Type Date Time Source
KMJX TAF UTC NOAA

Error!

Example: see airport list